This is the latest recevied weather packets stored in our database for station/object WB0RXX. If no packets are shown the sender has not sent any weather packets the latest 1 day(s).
| Time | Temp. | Humidity | Pressure | Rain* | Wind** | Luminosity | Snow |
|---|---|---|---|---|---|---|---|
| 1836274376 | 17.22° C | 94% | 1014.3 hPa | 0 mm | 0 m/s | - | - |
| 1836274228 | 17.22° C | 95% | 1014.4 hPa | 0 mm | 0 m/s | - | - |
| 1778056804 | 2.22° C | 70% | 1016 hPa | 0 mm | 0.45 m/s, 294° | - | - |
| 1778056205 | 2.22° C | 69% | 1015.9 hPa | 0 mm | 0 m/s | - | - |
| 1778055603 | 2.22° C | 69% | 1015.9 hPa | 0 mm | 0.45 m/s, 294° | - | - |
| 1778055004 | 1.67° C | 68% | 1015.8 hPa | 0 mm | 0 m/s | - | - |
| 1778054404 | 1.67° C | 68% | 1015.7 hPa | 0 mm | 0.45 m/s, 342° | - | - |
| 1778053804 | 1.67° C | 68% | 1015.7 hPa | 0 mm | 0 m/s | - | - |
| 1778053218 | 1.67° C | 68% | 1015.7 hPa | 0 mm | 0 m/s | - | - |
| 1778052604 | 1.67° C | 68% | 1015.7 hPa | 0 mm | 0.45 m/s, 342° | - | - |
| 1778052003 | 1.67° C | 67% | 1015.8 hPa | 0 mm | 0 m/s | - | - |
| 1778051404 | 2.22° C | 66% | 1016 hPa | 0 mm | 0 m/s | - | - |
| 1778050805 | 2.22° C | 66% | 1016 hPa | 0 mm | 0 m/s | - | - |
| 1778050220 | 2.22° C | 65% | 1015.8 hPa | 0 mm | 0 m/s | - | - |
| 1778049603 | 2.22° C | 65% | 1015.7 hPa | 0 mm | 0 m/s | - | - |
| 1778049005 | 2.78° C | 64% | 1015.7 hPa | 0 mm | 0 m/s | - | - |
| 1778048419 | 2.78° C | 63% | 1015.7 hPa | 0 mm | 0 m/s | - | - |
| 1778047804 | 2.78° C | 63% | 1015.7 hPa | 0 mm | 0 m/s | - | - |
| 1778047204 | 3.33° C | 62% | 1015.8 hPa | 0 mm | 0 m/s | - | - |
| 1778046605 | 3.33° C | 61% | 1015.8 hPa | 0 mm | 0 m/s | - | - |
| 1778046019 | 3.33° C | 61% | 1015.8 hPa | 0 mm | 0 m/s | - | - |
| 1778045405 | 3.89° C | 60% | 1015.8 hPa | 0 mm | 0 m/s | - | - |
| 1778044803 | 3.89° C | 60% | 1015.7 hPa | 0 mm | 0.89 m/s, 5° | - | - |
| 1778044204 | 3.89° C | 59% | 1015.7 hPa | 0 mm | 0.89 m/s, 345° | - | - |
| 1778043608 | 3.89° C | 59% | 1015.6 hPa | 0 mm | 0.45 m/s, 355° | - | - |
* Rain latest hour (hover to see other rain measurements)
** Current wind speed in m/s (hover to see current wind gust speed)